createdAt,value
2018-12-13T00:00:01.706Z,14.30
2018-12-13T00:02:30.872Z,13.47
2018-12-13T00:05:00.022Z,17.00
2018-12-13T00:07:29.139Z,14.93
2018-12-13T00:09:58.220Z,16.00
2018-12-13T00:12:27.302Z,14.43
2018-12-13T00:14:56.390Z,13.40
2018-12-13T00:17:25.487Z,13.53
2018-12-13T00:19:54.560Z,11.33
2018-12-13T00:22:23.702Z,16.30
2018-12-13T00:24:53.020Z,15.20
2018-12-13T00:27:22.072Z,13.80
2018-12-13T00:29:51.138Z,13.73
2018-12-13T00:32:20.238Z,16.80
2018-12-13T00:34:49.328Z,16.50
2018-12-13T00:37:18.774Z,18.47
2018-12-13T00:39:47.891Z,16.60
2018-12-13T00:42:16.936Z,19.20
2018-12-13T00:44:46.057Z,22.83
2018-12-13T00:47:15.161Z,16.33
2018-12-13T00:49:44.218Z,19.20
2018-12-13T00:52:13.277Z,15.70
2018-12-13T00:54:42.388Z,17.37
2018-12-13T00:57:11.454Z,16.20
2018-12-13T00:59:40.705Z,18.60
2018-12-13T01:02:09.850Z,16.70
2018-12-13T01:04:38.926Z,15.00
2018-12-13T01:07:08.010Z,17.90
2018-12-13T01:09:37.120Z,16.90
2018-12-13T01:12:06.222Z,19.27
2018-12-13T01:14:35.340Z,15.10
2018-12-13T01:17:04.811Z,18.63
2018-12-13T01:19:33.923Z,20.13
2018-12-13T01:22:03.291Z,18.80
2018-12-13T01:24:32.352Z,17.73
2018-12-13T01:27:01.495Z,15.80
2018-12-13T01:29:30.591Z,18.83
2018-12-13T01:31:59.688Z,17.43
2018-12-13T01:34:28.805Z,18.10
2018-12-13T01:36:57.969Z,21.10
2018-12-13T01:39:27.050Z,18.50
2018-12-13T01:41:56.156Z,22.00
2018-12-13T01:44:25.269Z,20.00
2018-12-13T01:46:54.355Z,21.60
2018-12-13T01:49:23.423Z,25.90
2018-12-13T01:51:52.531Z,22.37
2018-12-13T01:54:21.753Z,19.10
2018-12-13T01:56:50.801Z,20.57
2018-12-13T01:59:19.878Z,22.20
2018-12-13T02:01:49.113Z,22.10
2018-12-13T02:04:18.175Z,19.60
2018-12-13T02:06:47.377Z,19.57
2018-12-13T02:09:16.479Z,20.50
2018-12-13T02:11:45.543Z,26.23
2018-12-13T02:14:14.808Z,19.00
2018-12-13T02:16:43.884Z,15.80
2018-12-13T02:19:12.959Z,18.33
2018-12-13T02:21:42.075Z,14.87
2018-12-13T02:24:11.215Z,19.27
2018-12-13T02:26:40.323Z,19.03
2018-12-13T02:29:09.411Z,17.53
2018-12-13T02:31:38.477Z,16.07
2018-12-13T02:34:07.590Z,18.90
2018-12-13T02:36:36.658Z,19.77
2018-12-13T02:39:06.802Z,17.57
2018-12-13T02:41:35.894Z,17.63
2018-12-13T02:44:05.093Z,19.43
2018-12-13T02:46:34.206Z,21.60
2018-12-13T02:49:08.425Z,20.25
2018-12-13T02:51:37.687Z,19.57
2018-12-13T02:54:07.772Z,22.10
2018-12-13T02:56:36.913Z,21.07
2018-12-13T02:59:05.942Z,22.53
2018-12-13T03:01:35.018Z,21.07
2018-12-13T03:04:04.457Z,20.97
2018-12-13T03:06:33.532Z,24.07
2018-12-13T03:09:02.726Z,22.77
2018-12-13T03:11:31.819Z,21.90
2018-12-13T03:14:00.941Z,23.77
2018-12-13T03:16:30.031Z,22.33
2018-12-13T03:18:59.179Z,25.37
2018-12-13T03:21:28.219Z,22.30
2018-12-13T03:23:57.523Z,22.37
2018-12-13T03:26:26.649Z,21.68
2018-12-13T03:28:55.761Z,26.33
2018-12-13T03:31:24.873Z,24.73
2018-12-13T03:33:53.956Z,26.82
2018-12-13T03:36:23.042Z,29.12
2018-12-13T03:38:52.138Z,26.67
2018-12-13T03:41:21.259Z,29.60
2018-12-13T03:43:50.345Z,27.73
2018-12-13T03:46:19.466Z,21.83
2018-12-13T03:48:48.579Z,23.33
2018-12-13T03:51:17.647Z,26.75
2018-12-13T03:53:46.757Z,30.55
2018-12-13T03:56:16.014Z,23.98
2018-12-13T03:58:45.079Z,27.73
2018-12-13T04:01:14.187Z,27.60
2018-12-13T04:03:43.248Z,30.20
2018-12-13T04:06:12.463Z,27.53
2018-12-13T04:08:41.519Z,27.30
2018-12-13T04:11:10.598Z,25.40
2018-12-13T04:13:39.713Z,22.93
2018-12-13T04:16:08.808Z,27.95
2018-12-13T04:18:37.872Z,22.57
2018-12-13T04:21:06.943Z,26.60
2018-12-13T04:23:36.009Z,23.67
2018-12-13T04:26:05.091Z,25.47
2018-12-13T04:28:34.236Z,26.30
2018-12-13T04:31:03.476Z,28.23
2018-12-13T04:33:32.551Z,24.33
2018-12-13T04:36:01.616Z,23.70
2018-12-13T04:38:30.680Z,26.47
2018-12-13T04:40:59.898Z,24.52
2018-12-13T04:43:29.022Z,28.67
2018-12-13T04:45:58.126Z,24.50
2018-12-13T04:48:27.306Z,31.62
2018-12-13T04:50:56.398Z,24.57
2018-12-13T04:53:25.486Z,23.25
2018-12-13T04:55:54.564Z,23.00
2018-12-13T04:58:23.734Z,24.00
2018-12-13T05:00:52.808Z,24.20
2018-12-13T05:03:21.872Z,21.95
2018-12-13T05:05:51.048Z,26.68
2018-12-13T05:08:20.278Z,25.80
2018-12-13T05:10:53.306Z,23.00
2018-12-13T05:13:22.386Z,25.52
2018-12-13T05:15:51.458Z,26.90
2018-12-13T05:18:20.639Z,24.23
2018-12-13T05:20:49.726Z,24.90
2018-12-13T05:23:18.828Z,20.20
2018-12-13T05:25:47.953Z,23.43
2018-12-13T05:28:17.072Z,23.32
2018-12-13T05:30:46.652Z,24.40
2018-12-13T05:33:15.916Z,22.17
2018-12-13T05:35:44.996Z,21.85
2018-12-13T05:38:14.046Z,21.25
2018-12-13T05:40:43.177Z,23.70
2018-12-13T05:43:12.243Z,27.75
2018-12-13T05:45:41.448Z,19.90
2018-12-13T05:48:10.567Z,22.85
2018-12-13T05:50:39.655Z,20.43
2018-12-13T05:53:08.737Z,22.60
2018-12-13T05:55:37.907Z,20.97
2018-12-13T05:58:06.980Z,22.58
2018-12-13T06:00:36.101Z,21.17
2018-12-13T06:03:05.844Z,20.50
2018-12-13T06:05:34.905Z,23.98
2018-12-13T06:08:04.079Z,26.42
2018-12-13T06:10:33.653Z,17.77
2018-12-13T06:13:02.701Z,20.12
2018-12-13T06:15:31.797Z,19.25
2018-12-13T06:18:06.632Z,17.98
2018-12-13T06:20:31.905Z,24.45
2018-12-13T06:23:01.011Z,21.12
2018-12-13T06:25:30.123Z,15.90
2018-12-13T06:27:59.187Z,23.87
2018-12-13T06:30:28.315Z,17.60
2018-12-13T06:32:57.417Z,18.23
2018-12-13T06:35:26.655Z,16.80
2018-12-13T06:38:01.091Z,20.05
2018-12-13T06:40:27.035Z,17.37
2018-12-13T06:42:56.159Z,17.05
2018-12-13T06:45:25.306Z,16.75
2018-12-13T06:47:54.413Z,19.45
2018-12-13T06:50:23.564Z,18.23
2018-12-13T06:52:52.629Z,17.60
2018-12-13T06:55:21.701Z,25.77
2018-12-13T06:57:50.761Z,20.10
2018-12-13T07:00:19.847Z,21.52
2018-12-13T07:02:48.920Z,17.42
2018-12-13T07:05:17.964Z,19.40
2018-12-13T07:07:47.245Z,20.90
2018-12-13T07:10:16.310Z,20.60
2018-12-13T07:12:45.539Z,18.48
2018-12-13T07:15:14.627Z,19.80
2018-12-13T07:17:43.705Z,18.32
2018-12-13T07:20:12.909Z,17.87
2018-12-13T07:22:41.993Z,16.70
2018-12-13T07:25:11.076Z,17.55
2018-12-13T07:27:40.159Z,18.60
2018-12-13T07:30:09.967Z,17.25
2018-12-13T07:32:39.186Z,17.80
2018-12-13T07:35:08.431Z,20.37
2018-12-13T07:37:37.543Z,19.07
2018-12-13T07:40:08.059Z,21.45
2018-12-13T07:42:37.151Z,15.98
2018-12-13T07:45:06.370Z,18.77
2018-12-13T07:47:35.457Z,16.12
2018-12-13T07:50:05.827Z,16.35
2018-12-13T07:52:34.912Z,17.23
2018-12-13T07:55:04.409Z,19.40
2018-12-13T07:57:33.515Z,16.52
2018-12-13T08:00:02.602Z,17.45
2018-12-13T08:02:31.636Z,18.00
2018-12-13T08:05:00.721Z,16.60
2018-12-13T08:07:29.818Z,16.02
2018-12-13T08:09:58.888Z,17.07
2018-12-13T08:12:28.012Z,17.92
2018-12-13T08:14:57.432Z,18.95
2018-12-13T08:17:26.467Z,17.80
2018-12-13T08:19:55.573Z,14.17
2018-12-13T08:22:24.616Z,16.93
2018-12-13T08:24:53.649Z,22.93
2018-12-13T08:27:22.693Z,17.60
2018-12-13T08:29:51.808Z,18.95
2018-12-13T08:32:20.880Z,19.10
2018-12-13T08:34:49.952Z,13.15
2018-12-13T08:37:19.678Z,14.73
2018-12-13T08:39:48.834Z,15.53
2018-12-13T08:42:17.952Z,17.07
2018-12-13T08:44:47.096Z,18.07
2018-12-13T08:47:16.365Z,20.68
2018-12-13T08:49:45.418Z,18.62
2018-12-13T08:52:14.526Z,23.57
2018-12-13T08:54:43.859Z,19.97
2018-12-13T08:57:12.904Z,18.50
2018-12-13T08:59:41.972Z,19.90
2018-12-13T09:02:11.020Z,13.97
2018-12-13T09:04:40.064Z,16.97
2018-12-13T09:07:09.140Z,16.20
2018-12-13T09:09:38.184Z,20.27
2018-12-13T09:12:07.227Z,17.87
2018-12-13T09:14:36.437Z,18.03
2018-12-13T09:17:06.092Z,14.80
2018-12-13T09:19:35.147Z,17.50
2018-12-13T09:22:04.210Z,17.73
2018-12-13T09:24:33.263Z,17.70
2018-12-13T09:27:02.333Z,15.77
2018-12-13T09:29:31.355Z,19.30
2018-12-13T09:32:00.580Z,19.70
2018-12-13T09:34:29.675Z,15.13
2018-12-13T09:36:58.883Z,15.33
2018-12-13T09:39:27.996Z,16.40
2018-12-13T09:41:57.080Z,15.10
2018-12-13T09:44:26.337Z,20.00
2018-12-13T09:46:55.384Z,16.60
2018-12-13T09:49:24.758Z,14.60
2018-12-13T09:51:53.816Z,18.20
2018-12-13T09:54:22.914Z,16.20
2018-12-13T09:56:52.019Z,13.97
2018-12-13T09:59:21.212Z,15.67
2018-12-13T10:01:50.246Z,14.80
2018-12-13T10:04:19.349Z,15.53
2018-12-13T10:06:48.400Z,19.03
2018-12-13T10:09:17.457Z,14.50
2018-12-13T10:11:46.647Z,15.20
2018-12-13T10:14:15.679Z,15.57
2018-12-13T10:16:44.730Z,15.83
2018-12-13T10:19:14.112Z,19.13
2018-12-13T10:21:43.131Z,12.70
2018-12-13T10:24:12.198Z,16.50
2018-12-13T10:26:41.314Z,12.93
2018-12-13T10:29:10.348Z,13.10
2018-12-13T10:31:39.388Z,13.67
2018-12-13T10:34:08.491Z,12.40
2018-12-13T10:36:37.549Z,10.70
2018-12-13T10:39:08.538Z,12.60
2018-12-13T10:41:37.652Z,13.00
2018-12-13T10:44:06.702Z,11.37
2018-12-13T10:46:35.758Z,11.87
2018-12-13T10:49:04.782Z,12.20
2018-12-13T10:51:34.552Z,9.93
2018-12-13T10:54:03.640Z,11.20
2018-12-13T10:56:32.672Z,12.57
2018-12-13T10:59:01.696Z,10.87
2018-12-13T11:01:36.236Z,10.70
2018-12-13T11:04:05.291Z,8.50
2018-12-13T11:06:34.337Z,15.43
2018-12-13T11:09:04.857Z,11.30
2018-12-13T11:11:33.911Z,10.40
2018-12-13T11:14:02.961Z,9.10
2018-12-13T11:16:32.028Z,8.33
2018-12-13T11:19:01.137Z,9.23
2018-12-13T11:21:30.605Z,11.80
2018-12-13T11:23:59.689Z,11.83
2018-12-13T11:26:28.747Z,9.73
2018-12-13T11:29:33.944Z,8.70
2018-12-13T11:32:02.977Z,12.13
2018-12-13T11:34:32.103Z,8.70
2018-12-13T11:37:01.189Z,7.60
2018-12-13T11:39:30.248Z,9.30
2018-12-13T11:41:59.377Z,13.13
2018-12-13T11:44:28.581Z,9.33
2018-12-13T11:46:57.590Z,10.00
2018-12-13T11:49:26.653Z,9.40
2018-12-13T11:51:55.725Z,10.80
2018-12-13T11:54:38.309Z,9.50
2018-12-13T11:57:07.417Z,10.60
2018-12-13T11:59:36.475Z,11.20
2018-12-13T12:02:05.663Z,11.80
2018-12-13T12:04:34.767Z,10.93
2018-12-13T12:07:03.851Z,10.70
2018-12-13T12:09:32.925Z,12.27
2018-12-13T12:12:01.991Z,10.50
2018-12-13T12:14:31.023Z,11.70
2018-12-13T12:17:00.177Z,10.33
2018-12-13T12:19:29.285Z,11.07
2018-12-13T12:21:58.470Z,10.57
2018-12-13T12:24:27.510Z,10.70
2018-12-13T12:26:56.631Z,10.70
2018-12-13T12:29:25.691Z,9.27
2018-12-13T12:31:54.783Z,10.17
2018-12-13T12:34:23.848Z,9.50
2018-12-13T12:36:52.917Z,13.23
2018-12-13T12:39:21.948Z,10.80
2018-12-13T12:41:51.009Z,10.30
2018-12-13T12:44:20.071Z,9.60
2018-12-13T12:46:49.128Z,11.60
2018-12-13T12:49:18.366Z,10.03
2018-12-13T12:51:47.411Z,10.90
2018-12-13T12:54:16.458Z,12.47
2018-12-13T12:56:45.550Z,10.53
2018-12-13T12:59:14.613Z,11.40
2018-12-13T13:01:43.701Z,13.03
2018-12-13T13:04:12.800Z,10.13
2018-12-13T13:06:41.932Z,10.73
2018-12-13T13:09:10.988Z,11.80
2018-12-13T13:11:40.048Z,13.57
2018-12-13T13:14:09.073Z,13.30
2018-12-13T13:16:38.111Z,12.07
2018-12-13T13:19:07.192Z,11.10
2018-12-13T13:21:36.252Z,9.27
2018-12-13T13:24:05.651Z,11.80
2018-12-13T13:26:34.752Z,19.70
2018-12-13T13:29:03.938Z,10.43
2018-12-13T13:31:33.038Z,11.50
2018-12-13T13:34:02.102Z,13.67
2018-12-13T13:36:31.170Z,13.60
2018-12-13T13:39:00.646Z,14.43
2018-12-13T13:41:29.714Z,11.70
2018-12-13T13:43:58.735Z,12.40
2018-12-13T13:46:27.893Z,14.70
2018-12-13T13:48:56.939Z,17.43
2018-12-13T13:51:26.004Z,14.50
2018-12-13T13:53:55.074Z,13.90
2018-12-13T13:56:24.114Z,13.33
2018-12-13T13:58:53.153Z,11.30
2018-12-13T14:01:22.184Z,12.30
2018-12-13T14:03:51.332Z,12.30
2018-12-13T14:06:20.389Z,12.00
2018-12-13T14:08:49.454Z,13.07
2018-12-13T14:11:18.508Z,13.60
2018-12-13T14:13:47.596Z,12.00
2018-12-13T14:16:16.642Z,15.03
2018-12-13T14:18:45.793Z,12.80
2018-12-13T14:21:14.836Z,12.53
2018-12-13T14:23:43.932Z,13.30
2018-12-13T14:26:13.523Z,13.13
2018-12-13T14:28:42.607Z,11.30
2018-12-13T14:31:11.659Z,13.30
2018-12-13T14:33:40.767Z,15.13
2018-12-13T14:36:09.863Z,12.07
2018-12-13T14:38:38.900Z,13.70
2018-12-13T14:41:08.073Z,12.20
2018-12-13T14:43:37.151Z,10.17
2018-12-13T14:46:06.221Z,13.40
2018-12-13T14:48:35.414Z,14.20
2018-12-13T14:51:04.759Z,13.37
2018-12-13T14:53:33.797Z,12.23
2018-12-13T14:56:02.841Z,11.93
2018-12-13T14:58:32.251Z,18.13
2018-12-13T15:01:01.293Z,15.63
2018-12-13T15:03:30.489Z,16.20
2018-12-13T15:05:59.854Z,19.67
2018-12-13T15:08:28.909Z,19.50
2018-12-13T15:10:57.942Z,15.87
2018-12-13T15:13:27.051Z,15.97
2018-12-13T15:15:56.180Z,16.07
2018-12-13T15:18:25.259Z,16.87
2018-12-13T15:20:54.309Z,19.60
2018-12-13T15:23:23.346Z,17.87
2018-12-13T15:25:52.429Z,20.63
2018-12-13T15:28:21.712Z,21.30
2018-12-13T15:30:50.742Z,20.27
2018-12-13T15:33:19.902Z,21.53
2018-12-13T15:35:48.938Z,23.00
2018-12-13T15:38:17.992Z,23.43
2018-12-13T15:40:47.087Z,21.50
2018-12-13T15:43:16.137Z,26.40
2018-12-13T15:45:45.204Z,26.50
2018-12-13T15:48:14.280Z,29.70
2018-12-13T15:50:43.729Z,20.30
2018-12-13T15:53:12.774Z,18.30
2018-12-13T15:55:41.891Z,19.77
2018-12-13T15:58:10.946Z,17.87
2018-12-13T16:00:40.048Z,25.20
2018-12-13T16:03:09.168Z,24.40
2018-12-13T16:05:38.233Z,22.20
2018-12-13T16:08:07.406Z,23.07
2018-12-13T16:10:36.517Z,23.90
2018-12-13T16:13:05.568Z,21.17
2018-12-13T16:15:34.630Z,20.93
2018-12-13T16:18:03.745Z,18.83
2018-12-13T16:20:32.813Z,22.20
2018-12-13T16:23:01.923Z,21.47
2018-12-13T16:25:31.024Z,23.17
2018-12-13T16:28:00.066Z,21.83
2018-12-13T16:30:29.565Z,21.63
2018-12-13T16:32:58.689Z,21.63
2018-12-13T16:35:27.755Z,22.10
2018-12-13T16:37:56.852Z,22.57
2018-12-13T16:40:26.082Z,21.37
2018-12-13T16:42:55.179Z,22.10
2018-12-13T16:45:25.179Z,21.57
2018-12-13T16:47:54.317Z,22.57
2018-12-13T16:50:23.384Z,22.17
2018-12-13T16:52:52.454Z,26.80
2018-12-13T16:55:21.615Z,23.20
2018-12-13T16:57:50.881Z,19.70
2018-12-13T17:00:19.972Z,20.87
2018-12-13T17:02:49.071Z,21.00
2018-12-13T17:05:18.129Z,21.20
2018-12-13T17:07:47.214Z,23.00
2018-12-13T17:10:16.967Z,22.07
2018-12-13T17:12:46.563Z,23.97
2018-12-13T17:15:15.638Z,22.93
2018-12-13T17:17:44.715Z,28.83
2018-12-13T17:20:13.787Z,25.13
2018-12-13T17:22:42.835Z,23.03
2018-12-13T17:25:11.948Z,27.27
2018-12-13T17:27:41.017Z,23.77
2018-12-13T17:30:10.301Z,27.30
2018-12-13T17:32:39.961Z,24.23
2018-12-13T17:35:09.149Z,26.90
2018-12-13T17:37:38.217Z,26.70
2018-12-13T17:40:07.549Z,25.13
2018-12-13T17:42:36.773Z,29.70
2018-12-13T17:45:05.907Z,23.70
2018-12-13T17:47:35.019Z,25.73
2018-12-13T17:50:04.723Z,26.43
2018-12-13T17:52:33.811Z,28.27
2018-12-13T17:55:03.085Z,27.70
2018-12-13T17:57:32.182Z,28.97
2018-12-13T18:00:01.304Z,26.63
2018-12-13T18:02:30.415Z,32.50
2018-12-13T18:04:59.524Z,26.23
2018-12-13T18:07:28.588Z,29.43
2018-12-13T18:09:57.716Z,27.63
2018-12-13T18:12:26.823Z,28.57
2018-12-13T18:14:55.902Z,26.10
2018-12-13T18:17:24.995Z,30.07
2018-12-13T18:19:55.203Z,26.50
2018-12-13T18:22:24.441Z,24.07
2018-12-13T18:24:53.531Z,26.30
2018-12-13T18:27:22.671Z,33.43
2018-12-13T18:29:52.040Z,30.60
2018-12-13T18:32:21.147Z,31.83
2018-12-13T18:34:50.420Z,30.03
2018-12-13T18:37:19.543Z,33.17
2018-12-13T18:39:48.624Z,29.97
2018-12-13T18:42:17.770Z,28.55
2018-12-13T18:44:46.958Z,29.07
2018-12-13T18:47:17.707Z,33.33
2018-12-13T18:49:46.811Z,28.90
2018-12-13T18:52:15.893Z,29.50
2018-12-13T18:54:45.015Z,29.30
2018-12-13T18:57:14.171Z,25.05
2018-12-13T18:59:43.291Z,29.92
2018-12-13T19:02:12.399Z,30.33
2018-12-13T19:04:41.525Z,26.90
2018-12-13T19:07:10.637Z,27.50
2018-12-13T19:09:39.759Z,27.37
2018-12-13T19:12:08.962Z,26.00
2018-12-13T19:14:38.155Z,28.60
2018-12-13T19:17:07.283Z,25.30
2018-12-13T19:19:36.387Z,26.60
2018-12-13T19:22:05.439Z,25.40
2018-12-13T19:24:34.526Z,28.10
2018-12-13T19:27:03.623Z,28.27
2018-12-13T19:29:32.666Z,27.57
2018-12-13T19:32:01.735Z,24.27
2018-12-13T19:34:30.937Z,28.13
2018-12-13T19:37:00.356Z,28.30
2018-12-13T19:39:29.461Z,28.20
2018-12-13T19:41:58.634Z,36.03
2018-12-13T19:44:27.697Z,28.60
2018-12-13T19:46:56.790Z,30.00
2018-12-13T19:49:25.932Z,28.83
2018-12-13T19:51:55.075Z,27.13
2018-12-13T19:54:24.166Z,30.83
2018-12-13T19:56:53.310Z,30.50
2018-12-13T19:59:22.418Z,32.13
2018-12-13T20:01:51.494Z,28.30
2018-12-13T20:04:20.635Z,37.05
2018-12-13T20:06:49.735Z,29.80
2018-12-13T20:09:18.799Z,31.77
2018-12-13T20:11:47.906Z,31.05
2018-12-13T20:14:17.010Z,32.95
2018-12-13T20:16:46.131Z,31.87
2018-12-13T20:19:15.228Z,26.87
2018-12-13T20:21:44.363Z,34.77
2018-12-13T20:24:13.452Z,30.12
2018-12-13T20:26:42.602Z,30.05
2018-12-13T20:29:11.682Z,32.77
2018-12-13T20:31:40.999Z,30.07
2018-12-13T20:34:10.142Z,30.50
2018-12-13T20:36:39.295Z,33.50
2018-12-13T20:39:09.440Z,32.03
2018-12-13T20:41:38.964Z,29.10
2018-12-13T20:44:08.167Z,29.43
2018-12-13T20:46:37.258Z,28.77
2018-12-13T20:49:06.408Z,31.15
2018-12-13T20:51:35.522Z,35.43
2018-12-13T20:54:04.652Z,29.05
2018-12-13T20:56:33.797Z,29.55
2018-12-13T20:59:02.898Z,29.93
2018-12-13T21:01:31.983Z,26.97
2018-12-13T21:04:01.216Z,30.68
2018-12-13T21:06:30.287Z,29.63
2018-12-13T21:08:59.370Z,26.07
2018-12-13T21:11:28.917Z,28.20
2018-12-13T21:13:58.132Z,36.37
2018-12-13T21:16:27.219Z,28.87
2018-12-13T21:18:56.382Z,26.23
2018-12-13T21:21:25.442Z,29.73
2018-12-13T21:23:54.510Z,30.67
2018-12-13T21:26:23.629Z,30.15
2018-12-13T21:28:52.702Z,35.13
2018-12-13T21:31:21.792Z,30.10
2018-12-13T21:33:50.934Z,35.63
2018-12-13T21:36:20.014Z,32.33
2018-12-13T21:38:49.080Z,32.58
2018-12-13T21:41:18.382Z,29.10
2018-12-13T21:43:47.436Z,30.02
2018-12-13T21:46:16.530Z,27.70
2018-12-13T21:48:45.618Z,32.53
2018-12-13T21:51:14.682Z,28.30
2018-12-13T21:53:43.907Z,29.63
2018-12-13T21:56:14.224Z,29.92
2018-12-13T21:58:43.278Z,29.90
2018-12-13T22:01:12.334Z,30.68
2018-12-13T22:03:41.594Z,26.50
2018-12-13T22:06:10.696Z,31.48
2018-12-13T22:08:39.764Z,30.05
2018-12-13T22:11:08.942Z,25.40
2018-12-13T22:13:38.018Z,28.25
2018-12-13T22:16:07.096Z,29.85
2018-12-13T22:18:36.371Z,29.00
2018-12-13T22:21:05.426Z,27.13
2018-12-13T22:23:34.496Z,31.17
2018-12-13T22:26:03.718Z,30.17
2018-12-13T22:28:32.792Z,30.60
2018-12-13T22:31:01.864Z,30.10
2018-12-13T22:33:30.969Z,27.85
2018-12-13T22:36:00.028Z,25.23
2018-12-13T22:38:29.119Z,30.75
2018-12-13T22:40:58.222Z,26.55
2018-12-13T22:43:27.706Z,27.42
2018-12-13T22:45:56.824Z,25.20
2018-12-13T22:48:25.894Z,30.12
2018-12-13T22:50:54.956Z,28.40
2018-12-13T22:53:24.038Z,29.18
2018-12-13T22:55:53.097Z,27.75
2018-12-13T22:58:22.294Z,28.80
2018-12-13T23:00:51.418Z,28.40
2018-12-13T23:03:20.506Z,27.17
2018-12-13T23:05:49.615Z,31.20
2018-12-13T23:08:18.668Z,29.60
2018-12-13T23:10:47.772Z,28.65
2018-12-13T23:13:16.838Z,29.37
2018-12-13T23:15:45.946Z,29.27
2018-12-13T23:18:15.042Z,30.50
2018-12-13T23:20:44.162Z,29.90
2018-12-13T23:23:13.302Z,33.20
2018-12-13T23:25:42.402Z,31.02
2018-12-13T23:28:11.523Z,29.77
2018-12-13T23:30:40.612Z,26.40
2018-12-13T23:33:09.712Z,28.05
2018-12-13T23:35:38.798Z,34.08
2018-12-13T23:38:07.900Z,31.40
2018-12-13T23:40:36.952Z,29.65
2018-12-13T23:43:06.007Z,26.12
2018-12-13T23:45:35.604Z,29.63
2018-12-13T23:48:04.891Z,30.68
2018-12-13T23:50:34.228Z,28.87
2018-12-13T23:53:03.320Z,34.95
2018-12-13T23:55:32.407Z,29.40
2018-12-13T23:58:01.477Z,29.63
